Time;durP1;ratioP1;P1;durP2;ratioP2;P2;SDS_P1;SDS_P2;PMS_P1;PMS_P2;Temp;Humidity;BMP_temperature;BMP_pressure;BME280_temperature;BME280_humidity;BME280_pressure;Samples;Min_cycle;Max_cycle;Signal;HPM_P1;HPM_P2
2023/12/28 00:01:42;;;;;;;6.40;5.07;;;;;;;22.91;32.19;96116.28;6163847;28;109002;-55
2023/12/28 00:04:54;;;;;;;5.10;4.60;;;;;;;22.91;32.29;96126.97;6161668;28;109271;-55
2023/12/28 00:08:00;;;;;;;6.10;5.47;;;;;;;22.89;32.17;96134.47;6169099;28;109939;-55
2023/12/28 00:11:06;;;;;;;6.07;5.47;;;;;;;22.89;32.17;96131.81;6168311;28;109132;-55
2023/12/28 00:14:14;;;;;;;7.47;5.23;;;;;;;22.88;32.08;96139.03;6167414;28;109110;-54
2023/12/28 00:17:24;;;;;;;5.87;5.37;;;;;;;22.87;32.23;96139.31;6162313;28;109160;-55
2023/12/28 00:20:37;;;;;;;6.43;5.77;;;;;;;22.88;31.85;96148.91;6163960;28;109352;-55
2023/12/28 00:23:45;;;;;;;6.60;5.90;;;;;;;22.87;32.31;96149.97;6161390;28;109048;-55
2023/12/28 00:26:55;;;;;;;6.43;5.83;;;;;;;22.86;32.27;96151.84;6161158;28;109179;-55
2023/12/28 00:30:04;;;;;;;8.30;6.37;;;;;;;22.86;31.75;96143.84;6172051;28;109050;-55
2023/12/28 00:33:10;;;;;;;6.53;5.93;;;;;;;22.86;32.23;96145.72;6153037;28;110213;-55
2023/12/28 00:36:23;;;;;;;6.80;6.10;;;;;;;22.86;32.18;96145.72;6185517;28;109269;-55
2023/12/28 00:39:34;;;;;;;7.10;6.40;;;;;;;22.86;32.33;96156.41;6170029;28;108843;-55
2023/12/28 00:42:46;;;;;;;7.80;6.50;;;;;;;22.84;31.86;96148.66;6157964;28;109115;-68
2023/12/28 00:45:58;;;;;;;6.93;6.30;;;;;;;22.86;31.61;96148.38;6178532;28;109130;-55
2023/12/28 00:49:05;;;;;;;7.57;6.67;;;;;;;22.85;31.59;96149.44;6185110;28;109135;-55
2023/12/28 00:52:15;;;;;;;8.13;7.40;;;;;;;22.85;31.95;96150.25;6159794;28;109343;-55
2023/12/28 00:55:24;;;;;;;7.43;6.70;;;;;;;22.86;31.58;96156.41;6158906;28;110292;-55
2023/12/28 00:58:36;;;;;;;8.70;7.90;;;;;;;22.85;31.95;96157.44;6165163;28;109054;-55
2023/12/28 01:01:45;;;;;;;9.27;8.37;;;;;;;22.85;31.88;96160.94;6158374;28;109196;-55
2023/12/28 01:04:52;;;;;;;7.93;7.23;;;;;;;22.85;31.98;96165.44;6157966;28;109282;-55
2023/12/28 01:08:03;;;;;;;8.17;7.37;;;;;;;22.84;31.77;96161.19;6157002;28;109115;-55
2023/12/28 01:11:13;;;;;;;8.20;7.27;;;;;;;22.84;31.50;96167.31;6178482;28;109079;-55
2023/12/28 01:14:19;;;;;;;8.17;7.37;;;;;;;22.84;31.53;96166.53;6159365;28;109054;-55
2023/12/28 01:17:27;;;;;;;8.87;7.27;;;;;;;22.84;31.50;96169.19;6160571;28;110103;-55
2023/12/28 01:20:37;;;;;;;8.97;8.07;;;;;;;22.83;31.87;96160.41;6171130;28;109212;-55
2023/12/28 01:23:46;;;;;;;8.87;7.97;;;;;;;22.82;31.90;96156.16;6165679;28;109178;-55
2023/12/28 01:26:53;;;;;;;8.80;8.00;;;;;;;22.82;31.96;96161.47;6160226;28;109939;-55
2023/12/28 01:30:05;;;;;;;8.07;7.27;;;;;;;22.83;31.87;96168.41;6160481;28;109756;-55
2023/12/28 01:33:13;;;;;;;8.23;7.43;;;;;;;22.82;31.65;96156.16;6160815;28;109112;-55
2023/12/28 01:36:23;;;;;;;8.27;7.30;;;;;;;22.83;31.72;96156.94;6160350;28;108998;-55
2023/12/28 01:39:35;;;;;;;8.47;7.67;;;;;;;22.83;31.42;96152.41;6158063;28;109032;-58
2023/12/28 01:42:41;;;;;;;8.47;7.67;;;;;;;22.83;31.39;96146.25;6167528;28;109244;-58
2023/12/28 01:45:52;;;;;;;7.90;7.20;;;;;;;22.81;31.96;96145.75;6160402;28;109465;-59
2023/12/28 01:49:01;;;;;;;8.07;7.27;;;;;;;22.82;31.67;96148.13;6175129;28;109171;-62
2023/12/28 01:52:10;;;;;;;7.93;7.20;;;;;;;22.83;31.46;96146.25;6155907;28;110234;-58
2023/12/28 01:55:22;;;;;;;7.37;6.67;;;;;;;22.80;32.20;96150.31;6169984;28;109187;-58
2023/12/28 01:58:32;;;;;;;7.37;6.77;;;;;;;22.80;31.45;96147.63;6160307;28;110273;-58
2023/12/28 02:01:40;;;;;;;7.57;6.87;;;;;;;22.82;31.19;96147.34;6162634;28;110120;-58
2023/12/28 02:04:48;;;;;;;7.63;6.93;;;;;;;22.82;31.83;96139.34;6162025;28;109110;-58
2023/12/28 02:07:59;;;;;;;7.70;7.00;;;;;;;22.83;31.27;96143.59;6183553;28;109176;-59
2023/12/28 02:11:08;;;;;;;7.40;6.70;;;;;;;22.81;31.75;96143.88;6169347;28;109090;-58
2023/12/28 02:14:16;;;;;;;7.27;6.40;;;;;;;22.82;31.47;96145.47;6171671;28;111420;-63
2023/12/28 02:17:29;;;;;;;7.10;6.40;;;;;;;22.81;31.23;96143.09;6185274;28;109288;-59
2023/12/28 02:20:40;;;;;;;6.50;5.90;;;;;;;22.80;31.48;96138.81;6167846;28;109175;-58
2023/12/28 02:23:49;;;;;;;7.57;6.77;;;;;;;22.81;31.20;96138.53;6159550;28;109044;-56
2023/12/28 02:27:02;;;;;;;7.10;6.40;;;;;;;22.81;31.65;96143.09;6162458;28;109965;-58
2023/12/28 02:30:11;;;;;;;7.20;6.50;;;;;;;22.81;31.23;96140.41;6182117;28;109288;-57
2023/12/28 02:33:28;;;;;;;6.90;6.13;;;;;;;22.80;31.59;96141.50;6188339;28;109074;-58
2023/12/28 02:36:37;;;;;;;6.83;6.13;;;;;;;22.80;31.14;96146.84;6154828;28;109940;-60
2023/12/28 02:39:47;;;;;;;6.73;6.13;;;;;;;22.81;31.07;96145.75;6168006;28;109048;-59
2023/12/28 02:42:58;;;;;;;7.00;6.30;;;;;;;22.79;31.38;96145.25;6165672;28;111499;-58
2023/12/28 02:46:05;;;;;;;7.27;6.57;;;;;;;22.79;31.36;96142.56;6164381;28;109042;-58
2023/12/28 02:49:15;;;;;;;7.30;6.60;;;;;;;22.78;31.55;96139.13;6164544;28;109452;-57
2023/12/28 02:52:22;;;;;;;7.53;6.83;;;;;;;22.79;31.06;96142.56;6180918;28;109557;-58
2023/12/28 02:55:35;;;;;;;6.97;6.37;;;;;;;22.78;31.40;96136.44;6187190;28;109191;-59
2023/12/28 02:58:43;;;;;;;7.93;7.23;;;;;;;22.78;31.33;96135.66;6183751;28;109067;-55
2023/12/28 03:01:52;;;;;;;7.90;7.17;;;;;;;22.78;31.39;96131.09;6158868;28;109108;-58
2023/12/28 03:04:57;;;;;;;8.27;7.50;;;;;;;22.76;31.43;96129.81;6163531;28;109161;-58
2023/12/28 03:08:01;;;;;;;7.43;6.70;;;;;;;22.77;31.39;96126.06;6168111;28;109031;-58
2023/12/28 03:11:07;;;;;;;7.67;6.87;;;;;;;22.77;31.41;96120.72;6159418;28;109478;-62
2023/12/28 03:14:15;;;;;;;8.13;7.43;;;;;;;22.75;30.81;96117.53;6165829;28;109078;-58
2023/12/28 03:17:23;;;;;;;7.63;6.93;;;;;;;22.76;31.09;96116.47;6163458;28;109245;-57
2023/12/28 03:20:33;;;;;;;8.27;7.47;;;;;;;22.75;30.70;96117.53;6164930;28;109015;-58
2023/12/28 03:23:39;;;;;;;7.80;7.10;;;;;;;22.75;31.05;96122.88;6171216;28;108960;-58
2023/12/28 03:26:48;;;;;;;8.80;8.00;;;;;;;22.75;30.99;96117.53;6187770;28;109225;-58
2023/12/28 03:29:59;;;;;;;7.93;7.10;;;;;;;22.73;30.65;96115.16;6181231;28;109137;-58
2023/12/28 03:33:07;;;;;;;8.13;7.40;;;;;;;22.73;31.30;96103.69;6164940;28;109449;-57
2023/12/28 03:36:23;;;;;;;7.90;7.13;;;;;;;22.72;31.10;96112.78;6165263;28;109193;-58
2023/12/28 03:39:31;;;;;;;8.90;8.07;;;;;;;22.72;31.02;96126.13;6162110;28;109515;-57
2023/12/28 03:42:38;;;;;;;7.97;7.17;;;;;;;22.73;30.96;96135.72;6162397;28;109351;-58
2023/12/28 03:45:48;;;;;;;8.03;7.33;;;;;;;22.73;30.72;96136.50;6160621;28;109187;-59
2023/12/28 03:48:57;;;;;;;7.93;7.13;;;;;;;22.73;30.61;96144.50;6172268;28;109093;-57
2023/12/28 03:52:05;;;;;;;9.30;8.43;;;;;;;22.73;30.99;96146.38;6164299;28;110369;-58
2023/12/28 03:55:17;;;;;;;9.10;8.23;;;;;;;22.72;30.90;96150.94;6162102;28;109047;-58
2023/12/28 03:58:24;;;;;;;8.20;7.43;;;;;;;22.72;31.01;96166.94;6151012;28;112595;-59
2023/12/28 04:01:36;;;;;;;8.40;7.30;;;;;;;22.72;30.98;96160.81;6173203;28;109012;-59
2023/12/28 04:04:43;;;;;;;8.03;7.33;;;;;;;22.69;30.79;96154.16;6184659;28;109045;-58
2023/12/28 04:07:52;;;;;;;8.33;7.53;;;;;;;22.70;31.00;96153.88;6177344;28;109025;-55
2023/12/28 04:11:03;;;;;;;8.40;7.60;;;;;;;22.67;30.50;96150.97;6171247;28;110014;-58
2023/12/28 04:14:09;;;;;;;8.97;8.07;;;;;;;22.70;30.76;96151.22;6161764;28;110607;-58
2023/12/28 04:17:19;;;;;;;8.47;7.67;;;;;;;22.69;30.82;96149.63;6163976;28;109191;-58
2023/12/28 04:20:25;;;;;;;8.80;8.00;;;;;;;22.68;30.88;96147.22;6153472;28;111672;-58
2023/12/28 04:23:33;;;;;;;8.90;8.03;;;;;;;22.70;30.82;96155.75;6176215;28;110901;-57
2023/12/28 04:26:41;;;;;;;8.40;7.63;;;;;;;22.69;30.55;96152.28;6162325;28;109895;-58
2023/12/28 04:29:48;;;;;;;8.97;8.07;;;;;;;22.70;30.72;96153.09;6165741;28;109077;-58
2023/12/28 04:32:58;;;;;;;8.47;7.57;;;;;;;22.72;30.23;96158.13;6151060;28;108979;-59
2023/12/28 04:36:06;;;;;;;9.03;8.20;;;;;;;22.70;30.33;96151.22;6178418;28;109037;-58
2023/12/28 04:39:14;;;;;;;8.63;7.90;;;;;;;22.70;30.54;96145.88;6167063;28;109012;-57
2023/12/28 04:42:23;;;;;;;8.33;7.63;;;;;;;22.70;30.56;96143.22;6151954;28;109207;-55
2023/12/28 04:45:33;;;;;;;9.03;8.23;;;;;;;22.70;30.34;96143.22;6174808;28;109064;-58
2023/12/28 04:48:44;;;;;;;8.00;7.20;;;;;;;22.70;30.66;96145.88;6163185;28;109075;-58
2023/12/28 04:51:52;;;;;;;7.27;6.57;;;;;;;22.70;30.13;96143.22;6178931;28;109901;-57
2023/12/28 04:55:00;;;;;;;7.60;6.90;;;;;;;22.70;30.65;96148.53;6149929;28;109644;-58
2023/12/28 04:58:08;;;;;;;7.67;6.97;;;;;;;22.69;30.29;96144.28;6180425;28;109037;-57
2023/12/28 05:01:18;;;;;;;7.70;7.00;;;;;;;22.70;30.15;96139.75;6170441;28;109248;-58
2023/12/28 05:04:30;;;;;;;7.33;6.63;;;;;;;22.69;30.11;96146.97;6170871;28;109524;-56
2023/12/28 05:07:41;;;;;;;7.40;6.77;;;;;;;22.70;30.04;96137.88;6169041;28;110384;-58
2023/12/28 05:10:51;;;;;;;7.57;6.87;;;;;;;22.70;30.08;96147.75;6181407;28;109233;-58
2023/12/28 05:13:59;;;;;;;7.53;6.83;;;;;;;22.72;30.09;96152.81;6183662;28;108793;-56
2023/12/28 05:17:08;;;;;;;7.80;7.10;;;;;;;22.72;30.41;96144.78;6150299;28;109175;-58
2023/12/28 05:20:20;;;;;;;8.90;7.20;;;;;;;22.72;30.46;96155.47;6163441;28;109165;-58
2023/12/28 05:23:26;;;;;;;7.33;6.70;;;;;;;22.70;30.34;96156.56;6178254;28;109111;-59
2023/12/28 05:26:36;;;;;;;7.50;6.80;;;;;;;22.69;30.41;96157.63;6185568;28;108649;-59
2023/12/28 05:29:44;;;;;;;7.27;6.57;;;;;;;22.69;30.12;96156.84;6161655;28;110758;-58
2023/12/28 05:32:53;;;;;;;7.70;7.00;;;;;;;22.66;30.20;96150.16;6160166;28;109044;-58
2023/12/28 05:36:05;;;;;;;7.50;6.90;;;;;;;22.64;30.33;96160.31;6160111;28;108890;-58
2023/12/28 05:39:15;;;;;;;7.10;6.40;;;;;;;22.63;30.60;96173.94;6153913;28;109044;-58
2023/12/28 05:42:25;;;;;;;8.10;7.30;;;;;;;22.48;31.21;96171.38;6162145;28;109221;-60
2023/12/28 05:45:37;;;;;;;9.40;6.80;;;;;;;22.39;30.80;96176.53;6160575;28;108986;-59
2023/12/28 05:48:42;;;;;;;11.23;7.37;;;;;;;22.36;32.02;96174.44;6160201;28;109392;-59
2023/12/28 05:51:51;;;;;;;8.40;7.60;;;;;;;22.34;31.83;96179.22;6148785;28;109080;-58
2023/12/28 05:55:02;;;;;;;9.60;7.00;;;;;;;22.32;31.86;96178.72;6163761;28;109068;-59
2023/12/28 05:58:08;;;;;;;9.70;8.50;;;;;;;22.34;31.71;96188.03;6164408;28;110965;-59
2023/12/28 06:01:14;;;;;;;12.80;9.60;;;;;;;22.32;31.06;96190.19;6167896;28;109333;-58
2023/12/28 06:04:20;;;;;;;11.40;10.30;;;;;;;22.35;31.37;96184.31;6160418;28;110101;-59
2023/12/28 06:07:32;;;;;;;13.00;11.60;;;;;;;22.31;31.22;96179.78;6174846;28;109160;-60
2023/12/28 06:10:37;;;;;;;11.70;10.70;;;;;;;22.31;30.77;96174.47;6171242;28;109107;-59
2023/12/28 06:13:43;;;;;;;14.40;12.90;;;;;;;22.29;31.15;96173.94;6155787;28;109122;-58
2023/12/28 06:16:48;;;;;;;14.17;11.77;;;;;;;22.29;30.95;96182.75;6173818;28;109116;-57
2023/12/28 06:19:56;;;;;;;13.00;11.70;;;;;;;22.27;31.34;96174.22;6166940;28;109190;-58
2023/12/28 06:23:06;;;;;;;12.40;11.27;;;;;;;22.29;31.07;96189.94;6175194;28;109139;-57
2023/12/28 06:26:13;;;;;;;14.30;11.90;;;;;;;22.31;30.84;96190.47;6169968;28;109639;-57
2023/12/28 06:29:20;;;;;;;12.57;11.47;;;;;;;22.30;31.15;96184.34;6168988;28;109322;-58
2023/12/28 06:32:33;;;;;;;12.53;11.30;;;;;;;22.29;31.13;96189.94;6163885;28;109094;-57
2023/12/28 06:35:40;;;;;;;12.80;11.47;;;;;;;22.28;30.64;96186.47;6167456;28;109233;-57
2023/12/28 06:38:48;;;;;;;12.60;11.30;;;;;;;22.27;30.79;96184.09;6157986;28;109090;-57
2023/12/28 06:41:54;;;;;;;13.43;12.13;;;;;;;22.24;30.76;96198.00;6161319;28;109098;-57
2023/12/28 06:45:04;;;;;;;12.00;11.00;;;;;;;22.24;30.82;96203.31;6175964;28;109246;-56
2023/12/28 06:48:09;;;;;;;13.17;11.80;;;;;;;22.23;30.89;96204.41;6162856;28;109135;-57
2023/12/28 06:51:19;;;;;;;13.40;12.00;;;;;;;22.22;30.80;96205.47;6165530;28;110212;-58
2023/12/28 06:54:29;;;;;;;13.67;12.27;;;;;;;22.20;30.61;96204.97;6183471;28;109193;-58
2023/12/28 06:57:36;;;;;;;16.03;12.20;;;;;;;22.28;30.89;96209.69;6165314;28;109127;-57
2023/12/28 07:00:45;;;;;;;15.63;11.70;;;;;;;22.26;30.80;96201.19;6163148;28;109137;-58
2023/12/28 07:03:55;;;;;;;13.93;12.57;;;;;;;22.43;31.01;96212.25;6187821;28;109062;-57
2023/12/28 07:07:02;;;;;;;13.40;12.20;;;;;;;22.87;30.14;96216.72;6187927;28;109257;-57
2023/12/28 07:10:09;;;;;;;17.87;16.27;;;;;;;22.82;28.61;96208.72;6160607;28;109869;-57
2023/12/28 07:13:18;;;;;;;19.53;14.10;;;;;;;22.93;28.73;96202.22;6155609;28;109072;-57
2023/12/28 07:16:26;;;;;;;15.40;13.27;;;;;;;23.02;29.12;96205.88;6176683;28;109171;-57
2023/12/28 07:19:37;;;;;;;13.30;12.10;;;;;;;23.09;29.09;96203.66;6182931;28;109251;-57
2023/12/28 07:22:43;;;;;;;16.70;12.37;;;;;;;23.30;28.94;96205.03;6152450;28;109145;-56
2023/12/28 07:25:54;;;;;;;12.83;11.73;;;;;;;23.40;29.15;96212.16;6170599;28;109110;-57
2023/12/28 07:29:02;;;;;;;12.20;11.00;;;;;;;23.36;28.95;96202.34;6187090;28;109052;-59
2023/12/28 07:32:10;;;;;;;12.50;11.23;;;;;;;23.10;29.91;96199.91;6161862;28;109402;-60
2023/12/28 07:35:21;;;;;;;13.00;11.70;;;;;;;22.97;29.90;96200.56;6152848;28;108979;-60
2023/12/28 07:38:30;;;;;;;14.00;12.07;;;;;;;22.93;30.19;96211.03;6163049;28;109192;-60
2023/12/28 07:41:40;;;;;;;12.00;10.90;;;;;;;22.94;30.40;96211.81;6181722;28;109062;-61
2023/12/28 07:44:50;;;;;;;13.67;11.73;;;;;;;23.03;30.38;96215.47;6181625;28;108938;-60
2023/12/28 07:48:00;;;;;;;11.90;10.80;;;;;;;23.00;29.81;96216.03;6183475;28;109170;-60
2023/12/28 07:51:08;;;;;;;12.63;11.30;;;;;;;22.99;30.06;96215.22;6170215;28;108996;-61
2023/12/28 07:54:17;;;;;;;13.57;12.20;;;;;;;22.99;30.49;96219.78;6162888;28;109926;-60
2023/12/28 07:57:31;;;;;;;13.60;12.30;;;;;;;22.96;30.44;96218.47;6151368;28;109202;-61
2023/12/28 08:00:39;;;;;;;13.50;12.20;;;;;;;22.95;30.51;96208.06;6172367;28;109438;-61
2023/12/28 08:03:47;;;;;;;13.40;11.93;;;;;;;22.98;30.97;96220.84;6187742;28;109369;-64
2023/12/28 08:06:59;;;;;;;12.83;11.70;;;;;;;23.12;30.89;96216.44;6186769;28;109025;-60
2023/12/28 08:10:08;;;;;;;13.20;11.90;;;;;;;23.20;31.15;96218.50;6173277;28;110535;-60
2023/12/28 08:13:16;;;;;;;13.93;12.43;;;;;;;23.21;31.87;96212.06;6186809;28;109015;-70
2023/12/28 08:16:34;;;;;;;14.73;13.33;;;;;;;23.21;32.05;96212.06;6186111;28;109040;-59
2023/12/28 08:19:44;;;;;;;13.80;12.50;;;;;;;23.17;31.52;96211.03;6169455;28;109003;-61
2023/12/28 08:22:55;;;;;;;13.90;12.50;;;;;;;23.11;31.74;96214.84;6162100;28;109371;-61
2023/12/28 08:26:21;;;;;;;16.13;12.83;;;;;;;23.01;32.18;96210.41;6173049;28;109054;-60
2023/12/28 08:29:37;;;;;;;11.83;10.80;;;;;;;22.96;32.08;96201.66;6181796;28;109572;-58
2023/12/28 08:32:48;;;;;;;16.13;12.43;;;;;;;22.91;32.15;96199.03;6175808;28;109241;-59
2023/12/28 08:35:54;;;;;;;13.37;12.07;;;;;;;22.82;32.41;96208.72;6186168;28;109091;-60
2023/12/28 08:39:03;;;;;;;13.53;12.33;;;;;;;22.79;31.75;96198.63;6185889;28;109366;-56
2023/12/28 08:42:09;;;;;;;13.23;11.93;;;;;;;22.78;31.72;96202.38;6176792;28;110122;-57
2023/12/28 08:45:21;;;;;;;12.50;11.20;;;;;;;22.80;31.83;96194.88;6186136;28;109095;-58
2023/12/28 08:48:29;;;;;;;13.40;12.00;;;;;;;22.81;31.74;96183.13;6186201;28;110043;-56
2023/12/28 08:51:37;;;;;;;12.20;11.10;;;;;;;22.79;31.75;96183.41;6180568;28;109230;-56
2023/12/28 08:54:48;;;;;;;13.47;12.17;;;;;;;22.79;32.10;96177.28;6175041;28;109046;-56
2023/12/28 08:57:57;;;;;;;12.00;10.90;;;;;;;22.76;32.18;96165.28;6186425;28;110215;-57
2023/12/28 09:01:05;;;;;;;11.73;10.67;;;;;;;22.78;32.15;96160.47;6169514;28;109853;-57
2023/12/28 09:04:16;;;;;;;12.63;11.43;;;;;;;22.78;31.58;96163.13;6160295;28;108721;-57
2023/12/28 09:07:24;;;;;;;12.10;10.90;;;;;;;22.79;31.79;96166.59;6155971;28;110374;-56
2023/12/28 09:10:31;;;;;;;11.33;10.33;;;;;;;22.78;31.82;96160.47;6162091;28;109191;-56
2023/12/28 09:13:40;;;;;;;12.40;11.20;;;;;;;22.78;31.97;96165.00;6160947;28;109486;-56
2023/12/28 09:16:49;;;;;;;10.73;9.73;;;;;;;22.79;32.50;96153.25;6151004;28;108960;-56
2023/12/28 09:19:57;;;;;;;13.27;10.67;;;;;;;22.82;32.36;96150.81;6160745;28;109120;-56
2023/12/28 09:23:03;;;;;;;10.90;9.90;;;;;;;22.83;32.54;96141.72;6164209;28;109042;-56
2023/12/28 09:26:09;;;;;;;11.83;10.60;;;;;;;22.86;32.18;96137.72;6160892;28;109231;-56
2023/12/28 09:29:14;;;;;;;11.63;10.20;;;;;;;22.87;32.56;96131.28;6149810;28;110234;-57
2023/12/28 09:32:25;;;;;;;10.83;9.93;;;;;;;22.82;32.08;96131.34;6171046;28;110267;-56
2023/12/28 09:35:33;;;;;;;11.67;10.70;;;;;;;22.87;32.38;96128.63;6159323;28;110062;-60
2023/12/28 09:38:42;;;;;;;12.10;10.40;;;;;;;22.91;32.86;96119.75;6157935;28;109457;-56
2023/12/28 09:42:02;;;;;;;11.63;10.43;;;;;;;22.94;32.38;96113.06;6173862;28;109764;-57
2023/12/28 09:45:12;;;;;;;12.53;11.23;;;;;;;23.00;33.07;96112.69;6185630;28;109381;-56
2023/12/28 09:48:27;;;;;;;12.53;10.03;;;;;;;22.94;33.29;96108.50;6160448;28;109074;-57
2023/12/28 09:51:36;;;;;;;15.57;10.60;;;;;;;23.00;32.82;96103.91;6151518;28;109894;-57
2023/12/28 09:54:41;;;;;;;15.53;11.10;;;;;;;23.01;32.89;96095.59;6183870;28;109795;-57
2023/12/28 09:57:48;;;;;;;11.10;9.87;;;;;;;23.03;32.65;96098.00;6166618;28;109092;-57
2023/12/28 10:00:52;;;;;;;14.00;10.30;;;;;;;23.02;32.69;96085.75;6162029;28;110377;-57
2023/12/28 10:04:03;;;;;;;13.30;10.30;;;;;;;23.03;32.68;96079.31;6152674;28;109064;-57
2023/12/28 10:07:10;;;;;;;12.23;10.27;;;;;;;23.03;32.68;96073.97;6164664;28;108735;-56
2023/12/28 10:10:14;;;;;;;10.87;9.70;;;;;;;23.02;32.52;96059.06;6161985;28;109270;-56
2023/12/28 10:13:20;;;;;;;11.87;9.70;;;;;;;23.02;32.73;96061.72;6155764;28;109087;-57
2023/12/28 10:16:25;;;;;;;10.80;9.67;;;;;;;23.01;32.94;96055.56;6158457;28;110317;-56
2023/12/28 10:19:32;;;;;;;10.17;9.23;;;;;;;23.03;32.87;96062.50;6162955;28;108916;-56
2023/12/28 10:22:41;;;;;;;12.27;10.10;;;;;;;23.00;33.26;96056.63;6159394;28;109016;-56
2023/12/28 10:25:52;;;;;;;10.30;9.23;;;;;;;22.98;32.74;96047.34;6164040;28;110032;-56
2023/12/28 10:29:03;;;;;;;11.43;10.43;;;;;;;22.98;32.60;96042.00;6171241;28;109115;-57
2023/12/28 10:32:10;;;;;;;11.70;10.50;;;;;;;22.98;32.92;96040.13;6166500;28;110524;-56
2023/12/28 10:35:19;;;;;;;11.20;10.13;;;;;;;22.98;32.85;96023.31;6158691;28;109387;-56
2023/12/28 10:38:35;;;;;;;11.73;10.23;;;;;;;22.97;32.98;96019.06;6149437;28;109197;-57
2023/12/28 10:41:46;;;;;;;11.93;10.73;;;;;;;22.97;32.99;96000.38;6160413;28;110045;-57
2023/12/28 10:45:03;;;;;;;12.73;11.40;;;;;;;22.97;32.46;95984.34;6159737;28;109312;-56
2023/12/28 10:48:12;;;;;;;11.07;9.93;;;;;;;22.98;32.73;95984.06;6163685;28;109038;-56
2023/12/28 10:51:29;;;;;;;11.47;10.37;;;;;;;22.98;32.94;95978.72;6180664;28;109849;-56
2023/12/28 10:54:47;;;;;;;12.03;10.90;;;;;;;23.00;32.82;95976.56;6169323;28;110555;-56
2023/12/28 10:58:07;;;;;;;13.37;11.93;;;;;;;23.01;32.91;95964.00;6176479;28;108988;-57
2023/12/28 11:01:16;;;;;;;13.17;11.90;;;;;;;22.92;33.02;95963.06;6162221;28;110829;-60
2023/12/28 11:04:28;;;;;;;14.57;13.03;;;;;;;22.88;32.71;95951.41;6181341;28;109274;-59
2023/12/28 11:07:40;;;;;;;13.60;12.20;;;;;;;22.88;32.09;95954.06;6167692;28;109115;-60
2023/12/28 11:10:45;;;;;;;14.33;12.93;;;;;;;22.88;32.14;95946.84;6152420;28;110515;-59
2023/12/28 11:13:54;;;;;;;13.77;12.37;;;;;;;22.94;32.00;95947.56;6169595;28;110916;-60
2023/12/28 11:17:01;;;;;;;13.37;11.97;;;;;;;23.17;32.04;95936.00;6173657;28;109119;-58
2023/12/28 11:20:09;;;;;;;16.70;12.10;;;;;;;23.42;31.85;95944.75;6176127;28;109295;-57
2023/12/28 11:23:20;;;;;;;13.67;11.63;;;;;;;23.52;32.44;95928.53;6160364;28;109152;-57
2023/12/28 11:26:32;;;;;;;17.43;12.07;;;;;;;23.58;32.60;95922.81;6162033;28;110684;-57
2023/12/28 11:29:43;;;;;;;12.07;10.50;;;;;;;23.60;32.53;95915.31;6161115;28;109302;-57
2023/12/28 11:32:51;;;;;;;14.33;10.30;;;;;;;23.64;32.67;95912.03;6166656;28;109159;-56
2023/12/28 11:40:52;;;;;;;21.97;11.33;;;;;;;23.14;33.17;95903.75;6158999;28;108753;-59
2023/12/28 11:43:56;;;;;;;29.47;13.77;;;;;;;23.05;33.47;95906.28;6164795;28;109870;-55
2023/12/28 11:46:59;;;;;;;27.07;11.93;;;;;;;23.38;32.86;95898.34;6157222;28;109098;-56
2023/12/28 11:50:07;;;;;;;30.73;11.37;;;;;;;23.53;32.91;95898.06;6172455;28;109222;-57
2023/12/28 11:53:13;;;;;;;26.47;11.53;;;;;;;23.63;33.21;95897.88;6165597;28;109166;-57
2023/12/28 11:56:18;;;;;;;28.70;12.00;;;;;;;23.64;32.92;95896.78;6154822;28;111312;-57
2023/12/28 11:59:21;;;;;;;21.27;11.37;;;;;;;23.67;32.88;95892.72;6167549;28;110136;-56
2023/12/28 12:02:25;;;;;;;22.57;10.73;;;;;;;23.69;32.97;95887.88;6162106;28;112186;-57
2023/12/28 12:05:28;;;;;;;23.07;10.53;;;;;;;23.70;33.28;95871.59;6161617;28;109233;-57
2023/12/28 12:08:31;;;;;;;16.60;10.90;;;;;;;23.75;33.57;95873.34;6157616;28;109263;-57
2023/12/28 12:11:38;;;;;;;24.37;11.23;;;;;;;23.80;33.40;95866.03;6175251;28;109211;-57
2023/12/28 12:14:41;;;;;;;16.60;10.23;;;;;;;23.79;33.34;95869.78;6166329;28;109095;-59
2023/12/28 12:17:44;;;;;;;17.33;10.43;;;;;;;23.82;33.52;95863.06;6173581;28;109303;-57
2023/12/28 12:20:47;;;;;;;13.90;9.13;;;;;;;23.89;33.39;95858.91;6153762;28;109815;-57
2023/12/28 12:23:51;;;;;;;17.80;9.70;;;;;;;23.92;33.29;95854.06;6186654;28;110306;-54
2023/12/28 12:26:55;;;;;;;18.73;10.20;;;;;;;23.94;33.48;95857.22;6161256;28;109225;-56
2023/12/28 12:29:58;;;;;;;15.73;9.97;;;;;;;23.93;33.34;95847.63;6153776;28;109462;-55
2023/12/28 12:33:02;;;;;;;13.90;9.63;;;;;;;23.95;33.38;95858.81;6173246;28;110057;-57
2023/12/28 12:36:08;;;;;;;13.77;9.67;;;;;;;23.94;34.00;95859.91;6185100;28;110157;-58
2023/12/28 12:39:11;;;;;;;14.53;9.03;;;;;;;23.90;34.10;95860.50;6182101;28;110292;-58
2023/12/28 12:42:16;;;;;;;13.40;8.80;;;;;;;23.88;34.13;95861.88;6159126;28;109980;-58
2023/12/28 12:45:19;;;;;;;12.50;9.23;;;;;;;23.81;34.00;95848.91;6161222;28;110667;-57
2023/12/28 12:48:23;;;;;;;13.10;8.60;;;;;;;23.84;33.93;95853.66;6161360;28;109137;-59
2023/12/28 12:51:26;;;;;;;10.80;8.37;;;;;;;23.86;34.15;95864.88;6167001;28;109505;-57
2023/12/28 12:54:30;;;;;;;12.67;8.43;;;;;;;23.82;34.03;95857.72;6167864;28;110046;-56
2023/12/28 12:57:34;;;;;;;12.70;8.30;;;;;;;23.81;34.30;95856.13;6160718;28;109889;-57
2023/12/28 13:00:38;;;;;;;13.53;8.27;;;;;;;23.80;34.60;95854.53;6165918;28;110191;-58
2023/12/28 13:03:41;;;;;;;11.57;8.47;;;;;;;23.81;34.56;95846.22;6156551;28;109558;-56
2023/12/28 13:06:46;;;;;;;9.23;8.07;;;;;;;23.78;34.53;95849.50;6159419;28;110379;-57
2023/12/28 13:09:49;;;;;;;14.83;8.03;;;;;;;23.81;34.73;95845.44;6185916;28;109093;-57
2023/12/28 13:12:55;;;;;;;11.53;7.93;;;;;;;23.77;34.73;95839.91;6183763;28;109229;-58
2023/12/28 13:15:59;;;;;;;9.23;7.50;;;;;;;23.75;34.67;95839.41;6163364;28;109251;-58
2023/12/28 13:19:02;;;;;;;8.90;7.83;;;;;;;23.75;34.59;95841.28;6185329;28;109064;-58
2023/12/28 13:22:09;;;;;;;8.23;7.30;;;;;;;23.73;34.78;95844.25;6185976;28;108938;-58
2023/12/28 13:25:13;;;;;;;10.30;8.00;;;;;;;23.72;35.03;95836.53;6182831;28;110891;-58
2023/12/28 13:28:18;;;;;;;9.07;7.17;;;;;;;23.70;35.37;95839.50;6164072;28;108812;-58
2023/12/28 13:31:21;;;;;;;10.03;7.03;;;;;;;23.71;35.33;95838.44;6159853;28;109237;-57
2023/12/28 13:34:24;;;;;;;9.80;7.53;;;;;;;23.70;35.31;95839.50;6161971;28;108936;-59
2023/12/28 13:37:27;;;;;;;8.20;7.40;;;;;;;23.69;35.00;95835.25;6172683;28;110105;-56
2023/12/28 13:40:32;;;;;;;9.67;7.70;;;;;;;23.66;35.34;95832.38;6160301;28;109449;-58
2023/12/28 13:43:37;;;;;;;7.83;6.70;;;;;;;23.68;35.52;95835.53;6160371;28;109297;-58
2023/12/28 13:46:40;;;;;;;9.27;7.73;;;;;;;23.69;35.56;95834.44;6177814;28;109097;-58
2023/12/28 13:49:47;;;;;;;10.53;7.40;;;;;;;23.73;35.69;95835.44;6173544;28;109041;-57
2023/12/28 13:52:50;;;;;;;8.63;7.73;;;;;;;23.70;35.76;95831.50;6178649;28;109088;-58
2023/12/28 13:55:53;;;;;;;7.30;6.43;;;;;;;23.70;35.64;95836.84;6176580;28;110036;-56
2023/12/28 13:58:58;;;;;;;7.67;6.87;;;;;;;23.70;35.93;95836.06;6169166;28;109102;-56
2023/12/28 14:02:03;;;;;;;7.60;6.73;;;;;;;23.71;35.56;95834.97;6162752;28;109133;-56
2023/12/28 14:05:07;;;;;;;8.30;6.80;;;;;;;23.70;36.27;95836.06;6174266;28;109528;-57
2023/12/28 14:08:10;;;;;;;8.00;7.10;;;;;;;23.69;35.81;95831.75;6159525;28;109096;-56
2023/12/28 14:11:14;;;;;;;11.73;7.17;;;;;;;23.71;35.93;95830.41;6164998;28;109738;-57
2023/12/28 14:14:21;;;;;;;7.83;7.13;;;;;;;23.70;36.15;95831.50;6157285;28;109251;-56
2023/12/28 14:17:24;;;;;;;9.10;6.93;;;;;;;23.54;36.72;95827.53;6160407;28;110382;-62
2023/12/28 14:20:27;;;;;;;12.43;9.77;;;;;;;23.33;34.97;95826.28;6178562;28;109191;-58
2023/12/28 14:23:31;;;;;;;19.33;15.27;;;;;;;22.62;31.97;95820.22;6158215;28;109020;-58
2023/12/28 14:26:41;;;;;;;17.63;15.77;;;;;;;22.34;32.15;95820.03;6168780;28;109222;-59
2023/12/28 14:29:50;;;;;;;17.60;15.90;;;;;;;22.21;32.50;95811.97;6168201;28;110896;-58